Airfield :







YOU CAN JOIN US ON...

 
LOGIN :

Register | Disclaimer

   EN    FR    IT 

 









Legend :    VFR   Marginal VFR   IFR   Intensive IFR   Very Intensive IFR
Visi :
Ceiling :
>= 8 km
>= 3000ft
5 to 8 km
1000 to 3000 ft
1500m to 5 km
500 to 1000 ft
800 to 1500m
200 to 500 ft
< 800m
< 200 ft
Symbols :   Thunderstorms  Fog  Heavy snow  Heavy precipitations  Wind > 20 kt







- Airport Elevation : 20 ft
- IATA code : BOS


KBOS - General Edward Lawrence Logan International

CURRENT METAR :
  • 201854Z 24005KT 10SM SCT047 SCT150 BKN250 34/23 A2975 RMK AO2 SLP073 T03440233

EXPIRED METARs :
  • 201754Z 25009G14KT 210V270 10SM SCT047 BKN250 34/23 A2977 RMK AO2 SLP079 T03440233 10356 20300 58009
  • 201654Z 29007KT 250V320 10SM FEW045 BKN250 35/23 A2978 RMK AO2 SLP084 T03500228

TAF KBOS
Valid from the 20 at 18:00 until the 22 at 00:00 UTC


201737Z 2018/2124 27007KT P6SM FEW045
FM202100 22008KT P6SM SCT250
FM210500 25007KT P6SM SCT200
FM211400 27010KT P6SM FEW120
FM211900 27013G21KT P6SM FEW120
KZBW FIR / North America



MET'MAP, your aeronautical weather chart ! - Copyright ORBIFLY December 2007 - Disclaimer

ORBIFLY MET'MAP TEAM :

Programming & Development : Alexandra Zaïnal
Concept & Development : Baudouin d'Aumeries
Co-Development & Prog : Marc-Olivier Méhu
Technical & hardware support : Manuel Goepfert

Contact : metmap@orbifly.com




SOURCES & CREDITS :

   NOAA